| ID | Machine | Gebeurtenis | Tijd | Uren | Service | Status | USB ID | |
|---|---|---|---|---|---|---|---|---|
| 4350 | 250-007 XASIB-S5 | Engine Start | 15-08-2024 11:39:03 | 2 | - | Niet ingesteld | 6F2DC33481 | |
| 4343 | 200-056XAS | kW Overload Alarm Warning | 15-08-2024 11:34:55 | 913 | - | Niet ingesteld | 6F2AB6379B | |
| 4342 | 100-063XASB-S5 | Engine Stopped | 15-08-2024 11:32:49 | 474 | - | Niet ingesteld | 6B2AC17954 | |
| 4341 | 200-056XAS | kW Overload Alarm Warning | 15-08-2024 11:30:18 | 913 | - | Niet ingesteld | 6F2AB6379B | |
| 4340 | 200-056XAS | kW Overload Alarm Warning | 15-08-2024 11:22:30 | 913 | - | Niet ingesteld | 6F2AB6379B | |
| 4339 | 40-040XAI-S5 | Engine Start | 15-08-2024 11:19:15 | 349 | - | Niet ingesteld | 6B2A725CD0 | |
| 4338 | 200-056XAS | Generator Over Current Warning | 15-08-2024 11:14:15 | 913 | - | Niet ingesteld | 6F2AB6379B | |
| 4337 | 300-016XASB-S5 | Engine Start | 15-08-2024 10:57:58 | 725 | - | Niet ingesteld | 6E2CEFDBE7 | |
| 4336 | 40-040XAI-S5 | Engine Start | 15-08-2024 10:11:31 | 349 | - | Niet ingesteld | 6B2A725CD0 | |
| 4335 | 40-042XAI-S5 | Engine Stopped | 15-08-2024 09:52:06 | 112 | - | Niet ingesteld | 6D2A725CBF | |
| 4334 | 100-021 AI | Engine Stopped | 15-08-2024 09:50:12 | 18618 | - | Niet ingesteld | 6C223B8BE1 | |
| 4332 | 100-021 AI | Engine Start | 15-08-2024 09:47:55 | 18618 | - | Niet ingesteld | 6C223B8BE1 | |
| 4333 | 40-042XAI-S5 | Engine Start | 15-08-2024 09:46:43 | 112 | - | Niet ingesteld | 6D2A725CBF | |
| 4331 | 100-058XAB-S5 | Generator Over Volts Warning | 15-08-2024 09:42:37 | 526 | - | Niet ingesteld | 25A2A752A7F | |
| 4330 | 200-059XASB-S5 | ECU Lamp | 15-08-2024 09:36:47 | 422 | - | Niet ingesteld | 6F2AC4052B | |
| 4329 | 100-059XAB-S5 | Engine Start | 15-08-2024 09:29:53 | 420 | - | Niet ingesteld | 2592AEE5901 | |
| 4328 | 100-021 AI | Engine Stopped | 15-08-2024 09:09:45 | 18618 | - | Niet ingesteld | 6C223B8BE1 | |
| 4327 | 40-044XAI-S5 | Engine Start | 15-08-2024 09:05:17 | 93 | - | Niet ingesteld | 25A2A752B7A | |
| 4326 | 100-021 AI | Engine Start | 15-08-2024 08:57:23 | 18618 | - | Niet ingesteld | 6C223B8BE1 | |
| 4325 | 100-021 AI | Breaker Trip Warning | 15-08-2024 08:46:08 | 18618 | - | Niet ingesteld | 6C223B8BE1 | |
| 4324 | 100-021 AI | Engine Start | 15-08-2024 08:45:20 | 18618 | - | Niet ingesteld | 6C223B8BE1 | |
| 4323 | 100-021 AI | Engine Stopped | 15-08-2024 08:44:54 | 18618 | - | Niet ingesteld | 6C223B8BE1 | |
| 4321 | 200-059XASB-S5 | ECU Amber Warning | 15-08-2024 08:37:01 | 421 | - | Niet ingesteld | 6F2AC4052B | |
| 4320 | 200-059XASB-S5 | DPTC Filter Warning | 15-08-2024 08:36:40 | 421 | - | Niet ingesteld | 6F2AC4052B | |
| 4322 | 60-040A | Engine Start | 15-08-2024 08:36:06 | 2159 | - | Niet ingesteld | 25A29D8335C |